sensor_id;sensor_type;location;lat;lon;timestamp;temperature;humidity
81311;DHT22;70779;52.506;5.492;2023-06-26T00:00:05;25.90;56.50
81311;DHT22;70779;52.506;5.492;2023-06-26T00:02:33;25.80;56.60
81311;DHT22;70779;52.506;5.492;2023-06-26T00:04:59;25.80;56.60
81311;DHT22;70779;52.506;5.492;2023-06-26T00:07:29;25.80;56.60
81311;DHT22;70779;52.506;5.492;2023-06-26T00:09:57;25.80;56.70
81311;DHT22;70779;52.506;5.492;2023-06-26T00:12:24;25.70;56.70
81311;DHT22;70779;52.506;5.492;2023-06-26T00:14:52;25.60;56.70
81311;DHT22;70779;52.506;5.492;2023-06-26T00:17:18;25.60;56.60
81311;DHT22;70779;52.506;5.492;2023-06-26T00:19:45;25.60;56.50
81311;DHT22;70779;52.506;5.492;2023-06-26T00:22:12;25.60;56.50
81311;DHT22;70779;52.506;5.492;2023-06-26T00:24:40;25.70;56.40
81311;DHT22;70779;52.506;5.492;2023-06-26T00:27:06;25.60;56.30
81311;DHT22;70779;52.506;5.492;2023-06-26T00:29:33;25.70;56.30
81311;DHT22;70779;52.506;5.492;2023-06-26T00:31:59;25.60;56.30
81311;DHT22;70779;52.506;5.492;2023-06-26T00:34:26;25.70;56.20
81311;DHT22;70779;52.506;5.492;2023-06-26T00:36:53;25.70;56.10
81311;DHT22;70779;52.506;5.492;2023-06-26T00:39:20;25.60;56.10
81311;DHT22;70779;52.506;5.492;2023-06-26T00:41:49;25.60;56.10
81311;DHT22;70779;52.506;5.492;2023-06-26T00:44:15;25.60;56.20
81311;DHT22;70779;52.506;5.492;2023-06-26T00:46:43;25.60;56.20
81311;DHT22;70779;52.506;5.492;2023-06-26T00:49:11;25.60;56.20
81311;DHT22;70779;52.506;5.492;2023-06-26T00:51:39;25.60;56.20
81311;DHT22;70779;52.506;5.492;2023-06-26T00:54:06;25.60;56.20
81311;DHT22;70779;52.506;5.492;2023-06-26T00:56:34;25.60;56.20
81311;DHT22;70779;52.506;5.492;2023-06-26T00:59:00;25.60;56.20
81311;DHT22;70779;52.506;5.492;2023-06-26T01:01:27;25.60;56.20
81311;DHT22;70779;52.506;5.492;2023-06-26T01:03:55;25.60;56.20
81311;DHT22;70779;52.506;5.492;2023-06-26T01:06:26;25.60;56.20
81311;DHT22;70779;52.506;5.492;2023-06-26T01:08:55;25.50;56.20
81311;DHT22;70779;52.506;5.492;2023-06-26T01:11:21;25.50;56.20
81311;DHT22;70779;52.506;5.492;2023-06-26T01:13:47;25.50;56.20
81311;DHT22;70779;52.506;5.492;2023-06-26T01:16:19;25.50;56.20
81311;DHT22;70779;52.506;5.492;2023-06-26T01:18:47;25.50;56.30
81311;DHT22;70779;52.506;5.492;2023-06-26T01:21:15;25.40;56.40
81311;DHT22;70779;52.506;5.492;2023-06-26T01:24:10;25.40;56.40
81311;DHT22;70779;52.506;5.492;2023-06-26T01:26:41;25.40;56.40
81311;DHT22;70779;52.506;5.492;2023-06-26T01:29:15;25.40;56.40
81311;DHT22;70779;52.506;5.492;2023-06-26T01:31:42;25.40;56.40
81311;DHT22;70779;52.506;5.492;2023-06-26T01:34:08;25.50;56.40
81311;DHT22;70779;52.506;5.492;2023-06-26T01:36:34;25.50;56.40
81311;DHT22;70779;52.506;5.492;2023-06-26T01:39:05;25.60;56.50
81311;DHT22;70779;52.506;5.492;2023-06-26T01:41:31;25.60;56.50
81311;DHT22;70779;52.506;5.492;2023-06-26T01:47:01;25.80;55.70
81311;DHT22;70779;52.506;5.492;2023-06-26T01:52:19;25.80;55.50
81311;DHT22;70779;52.506;5.492;2023-06-26T01:54:55;25.80;55.80
81311;DHT22;70779;52.506;5.492;2023-06-26T01:57:27;25.80;56.00
81311;DHT22;70779;52.506;5.492;2023-06-26T01:59:55;25.80;56.20
81311;DHT22;70779;52.506;5.492;2023-06-26T02:02:23;25.70;56.30
81311;DHT22;70779;52.506;5.492;2023-06-26T02:04:51;25.60;56.50
81311;DHT22;70779;52.506;5.492;2023-06-26T02:07:17;25.60;56.60
81311;DHT22;70779;52.506;5.492;2023-06-26T02:09:44;25.60;56.70
81311;DHT22;70779;52.506;5.492;2023-06-26T02:12:10;25.60;56.80
81311;DHT22;70779;52.506;5.492;2023-06-26T02:14:37;25.50;57.00
81311;DHT22;70779;52.506;5.492;2023-06-26T02:17:04;25.50;57.30
81311;DHT22;70779;52.506;5.492;2023-06-26T02:19:31;25.30;57.40
81311;DHT22;70779;52.506;5.492;2023-06-26T02:21:58;25.30;57.60
81311;DHT22;70779;52.506;5.492;2023-06-26T02:24:25;25.20;57.80
81311;DHT22;70779;52.506;5.492;2023-06-26T02:26:57;25.10;58.00
81311;DHT22;70779;52.506;5.492;2023-06-26T02:29:24;25.00;58.20
81311;DHT22;70779;52.506;5.492;2023-06-26T02:31:51;25.00;58.30
81311;DHT22;70779;52.506;5.492;2023-06-26T02:34:18;25.00;58.50
81311;DHT22;70779;52.506;5.492;2023-06-26T02:36:45;25.00;58.70
81311;DHT22;70779;52.506;5.492;2023-06-26T02:39:13;24.80;58.80
81311;DHT22;70779;52.506;5.492;2023-06-26T02:41:41;24.80;59.00
81311;DHT22;70779;52.506;5.492;2023-06-26T02:44:07;24.70;59.20
81311;DHT22;70779;52.506;5.492;2023-06-26T02:46:34;24.70;59.30
81311;DHT22;70779;52.506;5.492;2023-06-26T02:49:01;24.60;59.40
81311;DHT22;70779;52.506;5.492;2023-06-26T02:51:28;24.50;59.50
81311;DHT22;70779;52.506;5.492;2023-06-26T02:53:56;24.70;59.70
81311;DHT22;70779;52.506;5.492;2023-06-26T02:56:23;24.40;59.80
81311;DHT22;70779;52.506;5.492;2023-06-26T02:58:50;24.40;60.10
81311;DHT22;70779;52.506;5.492;2023-06-26T03:01:17;24.40;60.10
81311;DHT22;70779;52.506;5.492;2023-06-26T03:03:46;24.30;60.20
81311;DHT22;70779;52.506;5.492;2023-06-26T03:06:15;24.20;60.30
81311;DHT22;70779;52.506;5.492;2023-06-26T03:08:43;24.20;60.40
81311;DHT22;70779;52.506;5.492;2023-06-26T03:11:10;24.20;60.40
81311;DHT22;70779;52.506;5.492;2023-06-26T03:13:38;24.20;60.40
81311;DHT22;70779;52.506;5.492;2023-06-26T03:16:05;24.20;60.40
81311;DHT22;70779;52.506;5.492;2023-06-26T03:18:31;24.20;60.40
81311;DHT22;70779;52.506;5.492;2023-06-26T03:20:58;24.20;60.50
81311;DHT22;70779;52.506;5.492;2023-06-26T03:23:26;24.20;60.50
81311;DHT22;70779;52.506;5.492;2023-06-26T03:25:53;24.20;60.50
81311;DHT22;70779;52.506;5.492;2023-06-26T03:28:24;24.20;60.50
81311;DHT22;70779;52.506;5.492;2023-06-26T03:30:51;24.20;60.50
81311;DHT22;70779;52.506;5.492;2023-06-26T03:33:18;24.10;60.40
81311;DHT22;70779;52.506;5.492;2023-06-26T03:35:45;24.10;60.60
81311;DHT22;70779;52.506;5.492;2023-06-26T03:38:14;24.00;60.60
81311;DHT22;70779;52.506;5.492;2023-06-26T03:40:42;24.00;60.70
81311;DHT22;70779;52.506;5.492;2023-06-26T03:43:08;24.00;60.70
81311;DHT22;70779;52.506;5.492;2023-06-26T03:45:54;24.00;60.50
81311;DHT22;70779;52.506;5.492;2023-06-26T03:48:20;24.00;60.50
81311;DHT22;70779;52.506;5.492;2023-06-26T03:50:47;24.00;60.70
81311;DHT22;70779;52.506;5.492;2023-06-26T03:53:13;23.90;60.80
81311;DHT22;70779;52.506;5.492;2023-06-26T03:55:40;23.90;60.90
81311;DHT22;70779;52.506;5.492;2023-06-26T03:58:07;23.80;61.10
81311;DHT22;70779;52.506;5.492;2023-06-26T04:00:34;23.80;61.20
81311;DHT22;70779;52.506;5.492;2023-06-26T04:03:01;23.80;61.20
81311;DHT22;70779;52.506;5.492;2023-06-26T04:05:30;23.80;61.10
81311;DHT22;70779;52.506;5.492;2023-06-26T04:07:56;23.80;61.10
81311;DHT22;70779;52.506;5.492;2023-06-26T04:10:25;23.70;61.10
81311;DHT22;70779;52.506;5.492;2023-06-26T04:12:51;23.70;61.10
81311;DHT22;70779;52.506;5.492;2023-06-26T04:15:18;23.70;61.20
81311;DHT22;70779;52.506;5.492;2023-06-26T04:17:45;23.80;61.20
81311;DHT22;70779;52.506;5.492;2023-06-26T04:20:11;23.80;61.30
81311;DHT22;70779;52.506;5.492;2023-06-26T04:22:38;23.70;61.40
81311;DHT22;70779;52.506;5.492;2023-06-26T04:25:05;23.80;61.40
81311;DHT22;70779;52.506;5.492;2023-06-26T04:27:32;23.80;61.30
81311;DHT22;70779;52.506;5.492;2023-06-26T04:29:58;23.80;61.40
81311;DHT22;70779;52.506;5.492;2023-06-26T04:32:25;23.80;61.40
81311;DHT22;70779;52.506;5.492;2023-06-26T04:34:52;23.80;61.40
81311;DHT22;70779;52.506;5.492;2023-06-26T04:37:19;23.80;61.20
81311;DHT22;70779;52.506;5.492;2023-06-26T04:39:46;23.80;60.70
81311;DHT22;70779;52.506;5.492;2023-06-26T04:42:13;23.80;60.30
81311;DHT22;70779;52.506;5.492;2023-06-26T04:44:40;23.80;60.20
81311;DHT22;70779;52.506;5.492;2023-06-26T04:47:08;24.00;59.80
81311;DHT22;70779;52.506;5.492;2023-06-26T04:49:34;24.00;59.10
81311;DHT22;70779;52.506;5.492;2023-06-26T04:52:01;24.20;58.40
81311;DHT22;70779;52.506;5.492;2023-06-26T04:54:29;24.40;57.30
81311;DHT22;70779;52.506;5.492;2023-06-26T04:56:56;24.50;56.50
81311;DHT22;70779;52.506;5.492;2023-06-26T04:59:24;24.70;55.70
81311;DHT22;70779;52.506;5.492;2023-06-26T05:01:50;25.00;55.40
81311;DHT22;70779;52.506;5.492;2023-06-26T05:04:17;25.40;54.70
81311;DHT22;70779;52.506;5.492;2023-06-26T05:06:44;25.80;54.10
81311;DHT22;70779;52.506;5.492;2023-06-26T05:09:11;26.20;53.40
81311;DHT22;70779;52.506;5.492;2023-06-26T05:11:37;26.50;52.70
81311;DHT22;70779;52.506;5.492;2023-06-26T05:14:05;26.90;51.90
81311;DHT22;70779;52.506;5.492;2023-06-26T05:16:33;27.20;51.00
81311;DHT22;70779;52.506;5.492;2023-06-26T05:19:00;27.30;50.80
81311;DHT22;70779;52.506;5.492;2023-06-26T05:21:28;27.00;51.30
81311;DHT22;70779;52.506;5.492;2023-06-26T05:23:56;26.60;52.10
81311;DHT22;70779;52.506;5.492;2023-06-26T05:26:23;26.40;52.90
81311;DHT22;70779;52.506;5.492;2023-06-26T05:28:49;26.50;53.00
81311;DHT22;70779;52.506;5.492;2023-06-26T05:31:16;27.00;52.60
81311;DHT22;70779;52.506;5.492;2023-06-26T05:33:44;27.60;51.60
81311;DHT22;70779;52.506;5.492;2023-06-26T05:36:12;28.20;50.90
81311;DHT22;70779;52.506;5.492;2023-06-26T05:38:39;28.60;50.00
81311;DHT22;70779;52.506;5.492;2023-06-26T05:41:07;28.60;49.70
81311;DHT22;70779;52.506;5.492;2023-06-26T05:43:33;28.40;50.00
81311;DHT22;70779;52.506;5.492;2023-06-26T05:46:00;28.10;50.40
81311;DHT22;70779;52.506;5.492;2023-06-26T05:48:27;28.10;50.50
81311;DHT22;70779;52.506;5.492;2023-06-26T05:50:53;28.30;50.00
81311;DHT22;70779;52.506;5.492;2023-06-26T05:53:21;28.70;49.30
81311;DHT22;70779;52.506;5.492;2023-06-26T05:55:47;28.80;48.80
81311;DHT22;70779;52.506;5.492;2023-06-26T05:58:14;28.60;49.00
81311;DHT22;70779;52.506;5.492;2023-06-26T06:00:42;28.30;49.40
81311;DHT22;70779;52.506;5.492;2023-06-26T06:03:10;28.00;49.80
81311;DHT22;70779;52.506;5.492;2023-06-26T06:05:36;27.70;49.80
81311;DHT22;70779;52.506;5.492;2023-06-26T06:08:04;27.40;50.50
81311;DHT22;70779;52.506;5.492;2023-06-26T06:10:31;27.10;51.20
81311;DHT22;70779;52.506;5.492;2023-06-26T06:12:58;26.80;51.90
81311;DHT22;70779;52.506;5.492;2023-06-26T06:15:25;26.60;52.10
81311;DHT22;70779;52.506;5.492;2023-06-26T06:17:52;26.40;52.20
81311;DHT22;70779;52.506;5.492;2023-06-26T06:20:19;26.30;52.40
81311;DHT22;70779;52.506;5.492;2023-06-26T06:22:46;26.10;52.90
81311;DHT22;70779;52.506;5.492;2023-06-26T06:25:15;26.10;53.30
81311;DHT22;70779;52.506;5.492;2023-06-26T06:27:41;26.10;53.60
81311;DHT22;70779;52.506;5.492;2023-06-26T06:30:09;26.20;53.60
81311;DHT22;70779;52.506;5.492;2023-06-26T06:32:35;26.40;52.90
81311;DHT22;70779;52.506;5.492;2023-06-26T06:35:02;26.40;52.80
81311;DHT22;70779;52.506;5.492;2023-06-26T06:37:37;26.50;53.00
81311;DHT22;70779;52.506;5.492;2023-06-26T06:40:05;26.60;52.90
81311;DHT22;70779;52.506;5.492;2023-06-26T06:42:32;26.80;52.40
81311;DHT22;70779;52.506;5.492;2023-06-26T06:45:02;26.80;52.30
81311;DHT22;70779;52.506;5.492;2023-06-26T06:47:30;26.80;52.60
81311;DHT22;70779;52.506;5.492;2023-06-26T06:49:56;26.90;52.60
81311;DHT22;70779;52.506;5.492;2023-06-26T06:52:23;26.90;52.60
81311;DHT22;70779;52.506;5.492;2023-06-26T06:54:52;26.90;52.40
81311;DHT22;70779;52.506;5.492;2023-06-26T06:57:19;26.90;52.60
81311;DHT22;70779;52.506;5.492;2023-06-26T06:59:47;26.80;52.60
81311;DHT22;70779;52.506;5.492;2023-06-26T07:02:18;26.90;52.80
81311;DHT22;70779;52.506;5.492;2023-06-26T07:04:44;27.00;52.60
81311;DHT22;70779;52.506;5.492;2023-06-26T07:07:12;27.10;52.30
81311;DHT22;70779;52.506;5.492;2023-06-26T07:09:39;27.20;52.00
81311;DHT22;70779;52.506;5.492;2023-06-26T07:12:06;27.30;52.00
81311;DHT22;70779;52.506;5.492;2023-06-26T07:14:32;27.40;51.80
81311;DHT22;70779;52.506;5.492;2023-06-26T07:17:00;27.50;51.60
81311;DHT22;70779;52.506;5.492;2023-06-26T07:19:26;27.60;51.40
81311;DHT22;70779;52.506;5.492;2023-06-26T07:21:53;27.70;51.50
81311;DHT22;70779;52.506;5.492;2023-06-26T07:24:21;27.70;51.20
81311;DHT22;70779;52.506;5.492;2023-06-26T07:26:47;27.70;51.30
81311;DHT22;70779;52.506;5.492;2023-06-26T07:29:16;27.50;51.50
81311;DHT22;70779;52.506;5.492;2023-06-26T07:31:44;27.50;51.70
81311;DHT22;70779;52.506;5.492;2023-06-26T07:34:18;27.40;51.80
81311;DHT22;70779;52.506;5.492;2023-06-26T07:36:44;27.40;51.80
81311;DHT22;70779;52.506;5.492;2023-06-26T07:39:11;27.40;51.90
81311;DHT22;70779;52.506;5.492;2023-06-26T07:41:39;27.40;51.90
81311;DHT22;70779;52.506;5.492;2023-06-26T07:44:05;27.40;51.90
81311;DHT22;70779;52.506;5.492;2023-06-26T07:46:32;27.30;51.90
81311;DHT22;70779;52.506;5.492;2023-06-26T07:48:59;27.30;52.10
81311;DHT22;70779;52.506;5.492;2023-06-26T07:51:26;27.30;52.20
81311;DHT22;70779;52.506;5.492;2023-06-26T07:53:52;27.40;51.90
81311;DHT22;70779;52.506;5.492;2023-06-26T07:56:18;27.30;51.80
81311;DHT22;70779;52.506;5.492;2023-06-26T07:58:45;27.10;52.20
81311;DHT22;70779;52.506;5.492;2023-06-26T08:01:13;27.10;52.60
81311;DHT22;70779;52.506;5.492;2023-06-26T08:03:39;27.20;52.30
81311;DHT22;70779;52.506;5.492;2023-06-26T08:06:06;27.40;52.20
81311;DHT22;70779;52.506;5.492;2023-06-26T08:08:33;27.50;51.60
81311;DHT22;70779;52.506;5.492;2023-06-26T08:11:02;27.50;51.30
81311;DHT22;70779;52.506;5.492;2023-06-26T08:13:29;27.70;51.00
81311;DHT22;70779;52.506;5.492;2023-06-26T08:15:56;27.80;50.70
81311;DHT22;70779;52.506;5.492;2023-06-26T08:18:23;27.70;50.80
81311;DHT22;70779;52.506;5.492;2023-06-26T08:20:49;27.70;51.00
81311;DHT22;70779;52.506;5.492;2023-06-26T08:23:17;27.80;51.30
81311;DHT22;70779;52.506;5.492;2023-06-26T08:25:43;28.10;51.00
81311;DHT22;70779;52.506;5.492;2023-06-26T08:28:10;28.40;50.90
81311;DHT22;70779;52.506;5.492;2023-06-26T08:30:38;29.30;49.90
81311;DHT22;70779;52.506;5.492;2023-06-26T08:33:08;30.60;48.30
81311;DHT22;70779;52.506;5.492;2023-06-26T08:35:39;32.20;46.40
81311;DHT22;70779;52.506;5.492;2023-06-26T08:38:10;33.20;45.00
81311;DHT22;70779;52.506;5.492;2023-06-26T08:40:38;34.20;43.70
81311;DHT22;70779;52.506;5.492;2023-06-26T08:43:05;34.40;43.00
81311;DHT22;70779;52.506;5.492;2023-06-26T08:45:33;33.90;43.50
81311;DHT22;70779;52.506;5.492;2023-06-26T08:48:00;33.30;43.90
81311;DHT22;70779;52.506;5.492;2023-06-26T08:50:30;32.70;44.40
81311;DHT22;70779;52.506;5.492;2023-06-26T08:55:31;32.00;45.50
81311;DHT22;70779;52.506;5.492;2023-06-26T08:57:59;32.50;45.40
81311;DHT22;70779;52.506;5.492;2023-06-26T09:00:27;33.10;44.60
81311;DHT22;70779;52.506;5.492;2023-06-26T09:02:55;34.00;43.70
81311;DHT22;70779;52.506;5.492;2023-06-26T09:05:22;35.30;42.30
81311;DHT22;70779;52.506;5.492;2023-06-26T09:07:49;35.90;41.10
81311;DHT22;70779;52.506;5.492;2023-06-26T09:10:16;35.80;41.00
81311;DHT22;70779;52.506;5.492;2023-06-26T09:12:46;35.50;41.40
81311;DHT22;70779;52.506;5.492;2023-06-26T09:15:15;35.60;40.90
81311;DHT22;70779;52.506;5.492;2023-06-26T09:17:42;35.70;40.80
81311;DHT22;70779;52.506;5.492;2023-06-26T09:20:10;36.10;40.60
81311;DHT22;70779;52.506;5.492;2023-06-26T09:22:37;36.90;39.80
81311;DHT22;70779;52.506;5.492;2023-06-26T09:25:06;37.30;39.10
81311;DHT22;70779;52.506;5.492;2023-06-26T09:27:34;37.90;38.80
81311;DHT22;70779;52.506;5.492;2023-06-26T09:30:06;38.50;38.00
81311;DHT22;70779;52.506;5.492;2023-06-26T09:32:36;38.50;37.70
81311;DHT22;70779;52.506;5.492;2023-06-26T09:35:04;38.00;38.30
81311;DHT22;70779;52.506;5.492;2023-06-26T09:37:32;38.00;38.30
81311;DHT22;70779;52.506;5.492;2023-06-26T09:40:02;38.30;38.10
81311;DHT22;70779;52.506;5.492;2023-06-26T09:42:30;38.90;37.50
81311;DHT22;70779;52.506;5.492;2023-06-26T09:44:57;39.70;36.90
81311;DHT22;70779;52.506;5.492;2023-06-26T09:47:24;40.30;36.50
81311;DHT22;70779;52.506;5.492;2023-06-26T09:49:50;41.00;36.10
81311;DHT22;70779;52.506;5.492;2023-06-26T09:52:18;41.80;35.40
81311;DHT22;70779;52.506;5.492;2023-06-26T09:54:46;42.00;34.40
81311;DHT22;70779;52.506;5.492;2023-06-26T09:57:18;41.00;35.20
81311;DHT22;70779;52.506;5.492;2023-06-26T09:59:46;39.70;35.90
81311;DHT22;70779;52.506;5.492;2023-06-26T10:02:12;38.30;37.00
81311;DHT22;70779;52.506;5.492;2023-06-26T10:04:38;37.50;37.90
81311;DHT22;70779;52.506;5.492;2023-06-26T10:07:06;37.70;38.10
81311;DHT22;70779;52.506;5.492;2023-06-26T10:09:38;38.60;37.20
81311;DHT22;70779;52.506;5.492;2023-06-26T10:12:11;38.90;36.70
81311;DHT22;70779;52.506;5.492;2023-06-26T10:14:41;38.90;36.60
81311;DHT22;70779;52.506;5.492;2023-06-26T10:17:16;38.10;37.00
81311;DHT22;70779;52.506;5.492;2023-06-26T10:19:47;37.60;37.20
81311;DHT22;70779;52.506;5.492;2023-06-26T10:22:17;37.20;37.60
81311;DHT22;70779;52.506;5.492;2023-06-26T10:24:45;36.50;38.00
81311;DHT22;70779;52.506;5.492;2023-06-26T10:27:17;36.40;37.90
81311;DHT22;70779;52.506;5.492;2023-06-26T10:29:54;36.80;37.60
81311;DHT22;70779;52.506;5.492;2023-06-26T10:32:24;37.50;37.20
81311;DHT22;70779;52.506;5.492;2023-06-26T10:34:52;38.20;36.20
81311;DHT22;70779;52.506;5.492;2023-06-26T10:37:19;38.90;35.10
81311;DHT22;70779;52.506;5.492;2023-06-26T10:39:51;39.30;34.80
81311;DHT22;70779;52.506;5.492;2023-06-26T10:42:28;39.60;34.60
81311;DHT22;70779;52.506;5.492;2023-06-26T10:45:10;39.80;34.30
81311;DHT22;70779;52.506;5.492;2023-06-26T10:47:41;40.00;34.10
81311;DHT22;70779;52.506;5.492;2023-06-26T10:52:45;38.90;34.30
81311;DHT22;70779;52.506;5.492;2023-06-26T10:55:13;37.50;35.50
81311;DHT22;70779;52.506;5.492;2023-06-26T10:57:46;36.10;36.80
81311;DHT22;70779;52.506;5.492;2023-06-26T11:00:14;35.00;37.70
81311;DHT22;70779;52.506;5.492;2023-06-26T11:02:51;34.00;38.30
81311;DHT22;70779;52.506;5.492;2023-06-26T11:05:32;33.30;39.00
81311;DHT22;70779;52.506;5.492;2023-06-26T11:10:51;32.00;40.80
81311;DHT22;70779;52.506;5.492;2023-06-26T11:13:19;31.40;41.70
81311;DHT22;70779;52.506;5.492;2023-06-26T11:15:47;31.00;41.90
81311;DHT22;70779;52.506;5.492;2023-06-26T11:18:16;30.70;42.50
81311;DHT22;70779;52.506;5.492;2023-06-26T11:20:42;30.60;43.40
81311;DHT22;70779;52.506;5.492;2023-06-26T11:23:09;30.50;43.70
81311;DHT22;70779;52.506;5.492;2023-06-26T11:25:37;30.50;43.00
81311;DHT22;70779;52.506;5.492;2023-06-26T11:28:05;30.40;43.10
81311;DHT22;70779;52.506;5.492;2023-06-26T11:30:31;30.30;43.20
81311;DHT22;70779;52.506;5.492;2023-06-26T11:33:09;30.20;43.20
81311;DHT22;70779;52.506;5.492;2023-06-26T11:35:36;30.00;43.70
81311;DHT22;70779;52.506;5.492;2023-06-26T11:38:03;30.00;43.90
81311;DHT22;70779;52.506;5.492;2023-06-26T11:40:33;30.00;43.70
81311;DHT22;70779;52.506;5.492;2023-06-26T11:43:01;29.90;43.60
81311;DHT22;70779;52.506;5.492;2023-06-26T11:45:31;29.90;43.70
81311;DHT22;70779;52.506;5.492;2023-06-26T11:47:58;29.70;43.90
81311;DHT22;70779;52.506;5.492;2023-06-26T11:50:25;29.70;44.00
81311;DHT22;70779;52.506;5.492;2023-06-26T11:52:56;29.70;44.10
81311;DHT22;70779;52.506;5.492;2023-06-26T11:55:26;29.70;44.20
81311;DHT22;70779;52.506;5.492;2023-06-26T11:57:54;29.70;44.60
81311;DHT22;70779;52.506;5.492;2023-06-26T12:00:21;29.60;44.30
81311;DHT22;70779;52.506;5.492;2023-06-26T12:02:49;29.50;44.80
81311;DHT22;70779;52.506;5.492;2023-06-26T12:05:16;29.50;44.90
81311;DHT22;70779;52.506;5.492;2023-06-26T12:07:44;29.60;44.80
81311;DHT22;70779;52.506;5.492;2023-06-26T12:10:14;29.50;44.30
81311;DHT22;70779;52.506;5.492;2023-06-26T12:12:42;29.30;44.60
81311;DHT22;70779;52.506;5.492;2023-06-26T12:15:12;29.20;45.00
81311;DHT22;70779;52.506;5.492;2023-06-26T12:17:39;29.10;45.10
81311;DHT22;70779;52.506;5.492;2023-06-26T12:20:18;29.10;45.30
81311;DHT22;70779;52.506;5.492;2023-06-26T12:22:46;29.10;45.20
81311;DHT22;70779;52.506;5.492;2023-06-26T12:25:13;29.00;45.10
81311;DHT22;70779;52.506;5.492;2023-06-26T12:27:40;29.00;45.40
81311;DHT22;70779;52.506;5.492;2023-06-26T12:30:08;28.90;45.50
81311;DHT22;70779;52.506;5.492;2023-06-26T12:32:34;28.90;44.90
81311;DHT22;70779;52.506;5.492;2023-06-26T12:35:02;28.70;45.30
81311;DHT22;70779;52.506;5.492;2023-06-26T12:37:28;28.70;45.20
81311;DHT22;70779;52.506;5.492;2023-06-26T12:39:57;28.80;45.10
81311;DHT22;70779;52.506;5.492;2023-06-26T12:42:25;28.70;45.20
81311;DHT22;70779;52.506;5.492;2023-06-26T12:44:53;28.60;45.50
81311;DHT22;70779;52.506;5.492;2023-06-26T12:47:27;28.60;45.70
81311;DHT22;70779;52.506;5.492;2023-06-26T12:49:54;28.70;45.70
81311;DHT22;70779;52.506;5.492;2023-06-26T12:52:21;28.60;45.30
81311;DHT22;70779;52.506;5.492;2023-06-26T12:54:52;28.50;45.70
81311;DHT22;70779;52.506;5.492;2023-06-26T12:57:19;28.40;45.90
81311;DHT22;70779;52.506;5.492;2023-06-26T12:59:46;28.30;45.60
81311;DHT22;70779;52.506;5.492;2023-06-26T13:02:13;28.30;45.10
81311;DHT22;70779;52.506;5.492;2023-06-26T13:04:41;28.10;45.60
81311;DHT22;70779;52.506;5.492;2023-06-26T13:07:08;28.00;46.10
81311;DHT22;70779;52.506;5.492;2023-06-26T13:09:35;27.90;46.00
81311;DHT22;70779;52.506;5.492;2023-06-26T13:12:06;27.80;46.40
81311;DHT22;70779;52.506;5.492;2023-06-26T13:14:33;27.80;46.60
81311;DHT22;70779;52.506;5.492;2023-06-26T13:17:00;27.80;46.00
81311;DHT22;70779;52.506;5.492;2023-06-26T13:19:27;27.70;46.20
81311;DHT22;70779;52.506;5.492;2023-06-26T13:21:54;27.70;46.60
81311;DHT22;70779;52.506;5.492;2023-06-26T13:24:21;27.70;46.50
81311;DHT22;70779;52.506;5.492;2023-06-26T13:26:49;27.70;46.50
81311;DHT22;70779;52.506;5.492;2023-06-26T13:29:15;27.70;46.40
81311;DHT22;70779;52.506;5.492;2023-06-26T13:31:42;27.60;46.50
81311;DHT22;70779;52.506;5.492;2023-06-26T13:34:20;27.70;46.70
81311;DHT22;70779;52.506;5.492;2023-06-26T13:36:47;27.90;46.20
81311;DHT22;70779;52.506;5.492;2023-06-26T13:39:14;27.90;45.90
81311;DHT22;70779;52.506;5.492;2023-06-26T13:41:40;27.80;45.50
81311;DHT22;70779;52.506;5.492;2023-06-26T13:44:07;27.70;45.50
81311;DHT22;70779;52.506;5.492;2023-06-26T13:46:34;27.70;45.20
81311;DHT22;70779;52.506;5.492;2023-06-26T13:49:01;27.50;45.50
81311;DHT22;70779;52.506;5.492;2023-06-26T13:51:28;27.50;45.70
81311;DHT22;70779;52.506;5.492;2023-06-26T13:53:55;27.50;46.10
81311;DHT22;70779;52.506;5.492;2023-06-26T13:56:27;27.50;45.90
81311;DHT22;70779;52.506;5.492;2023-06-26T13:58:53;27.70;45.90
81311;DHT22;70779;52.506;5.492;2023-06-26T14:01:20;27.70;45.70
81311;DHT22;70779;52.506;5.492;2023-06-26T14:03:47;27.50;45.20
81311;DHT22;70779;52.506;5.492;2023-06-26T14:06:14;27.40;45.90
81311;DHT22;70779;52.506;5.492;2023-06-26T14:08:40;27.30;46.40
81311;DHT22;70779;52.506;5.492;2023-06-26T14:11:07;27.20;46.20
81311;DHT22;70779;52.506;5.492;2023-06-26T14:13:34;27.20;46.30
81311;DHT22;70779;52.506;5.492;2023-06-26T14:16:01;27.10;46.30
81311;DHT22;70779;52.506;5.492;2023-06-26T14:18:28;27.10;46.10
81311;DHT22;70779;52.506;5.492;2023-06-26T14:20:55;27.00;47.00
81311;DHT22;70779;52.506;5.492;2023-06-26T14:23:22;27.00;46.80
81311;DHT22;70779;52.506;5.492;2023-06-26T14:25:49;27.00;46.50
81311;DHT22;70779;52.506;5.492;2023-06-26T14:28:16;27.00;46.20
81311;DHT22;70779;52.506;5.492;2023-06-26T14:30:43;26.90;46.10
81311;DHT22;70779;52.506;5.492;2023-06-26T14:33:10;26.90;46.40
81311;DHT22;70779;52.506;5.492;2023-06-26T14:35:37;26.80;46.50
81311;DHT22;70779;52.506;5.492;2023-06-26T14:38:04;26.80;46.60
81311;DHT22;70779;52.506;5.492;2023-06-26T14:40:32;26.80;46.60
81311;DHT22;70779;52.506;5.492;2023-06-26T14:42:58;26.80;46.40
81311;DHT22;70779;52.506;5.492;2023-06-26T14:45:28;26.70;46.60
81311;DHT22;70779;52.506;5.492;2023-06-26T14:47:54;26.60;47.00
81311;DHT22;70779;52.506;5.492;2023-06-26T14:50:21;26.60;46.60
81311;DHT22;70779;52.506;5.492;2023-06-26T14:52:50;26.70;46.60
81311;DHT22;70779;52.506;5.492;2023-06-26T14:55:20;26.70;46.70
81311;DHT22;70779;52.506;5.492;2023-06-26T14:57:46;26.80;46.60
81311;DHT22;70779;52.506;5.492;2023-06-26T15:00:14;26.80;46.80
81311;DHT22;70779;52.506;5.492;2023-06-26T15:02:40;26.80;46.70
81311;DHT22;70779;52.506;5.492;2023-06-26T15:05:07;26.80;46.70
81311;DHT22;70779;52.506;5.492;2023-06-26T15:07:34;26.80;46.50
81311;DHT22;70779;52.506;5.492;2023-06-26T15:10:01;26.80;46.30
81311;DHT22;70779;52.506;5.492;2023-06-26T15:12:29;26.80;46.40
81311;DHT22;70779;52.506;5.492;2023-06-26T15:14:55;26.80;46.60
81311;DHT22;70779;52.506;5.492;2023-06-26T15:17:21;26.70;46.60
81311;DHT22;70779;52.506;5.492;2023-06-26T15:19:49;26.70;46.70
81311;DHT22;70779;52.506;5.492;2023-06-26T15:22:18;26.60;46.70
81311;DHT22;70779;52.506;5.492;2023-06-26T15:24:44;26.50;46.80
81311;DHT22;70779;52.506;5.492;2023-06-26T15:27:11;26.40;46.60
81311;DHT22;70779;52.506;5.492;2023-06-26T15:29:39;26.40;46.30
81311;DHT22;70779;52.506;5.492;2023-06-26T15:32:07;26.30;46.50
81311;DHT22;70779;52.506;5.492;2023-06-26T15:34:33;26.20;46.80
81311;DHT22;70779;52.506;5.492;2023-06-26T15:37:00;26.20;46.90
81311;DHT22;70779;52.506;5.492;2023-06-26T15:39:26;26.20;46.70
81311;DHT22;70779;52.506;5.492;2023-06-26T15:41:53;26.20;46.40
81311;DHT22;70779;52.506;5.492;2023-06-26T15:44:20;26.20;46.60
81311;DHT22;70779;52.506;5.492;2023-06-26T15:46:47;26.20;46.60